Terminal Aerodrome Forecast
Issued by NWS Huntsville, AL

Home | Current Version | Previous Version | Text Only | Print | Product List | Glossary On
Versions: 1 2 3 4 5 6 7 8 9 10 11 12 13 14 15 16 17 18 19 20 21 22
000
FTUS44 KHUN 041120
TAFHSV
TAF
KHSV 041120Z 0412/0512 34005KT P6SM SKC
     FM041500 30010KT P6SM FEW200
     FM041800 29015G25KT P6SM SCT060
     FM042100 28015G25KT P6SM VCTS BKN050CB
     FM050200 34010KT P6SM FEW050
     FM050700 33006KT P6SM SKC=

USA.gov is the U.S. government's official web portal to all federal, state and local government web resources and services.